메인 페이지
METAR-TAF:

METAR-TAF

공항 :

무슈, 터키

위도: 38-45N, 경도: 041-40E, 고도: 1266m

현재 날씨관측

예보는 39분 전, 09:50시(UTC)에 발표되었습니다.
여러 방향의 바람 2kt
온도 -4°C
습도 93%
기압 1016 hPa
시정: 3500m
고도 3000ft 상공 구름 보통
고도 8000ft 상공 구름 많음
박무

METAR: LTCK 180950Z VRB02KT 3500 BR SCT030 BKN080 M04/M05 Q1016

시각: 13:29 (10:29 UTC)

예보

예보는 2 시간 49분 전, 07:40시(UTC)에 발표되었습니다.
예보 대상 시간: 18일 09시부터 18일 18시까지 (UTC)
여러 방향의 바람 2kt
시정: 1200m
고도 500ft 상공 구름 보통
고도 3000ft 상공 구름 많음
박무
전환 중
18일 09시부터 18일 11시까지 (UTC)
시정: 4000m

TAF: LTCK 180740Z 1809/1818 VRB02KT 1200 BR SCT005 BKN030 BECMG 1809/1811 4000

4,000개 이상의 공항 관측 자료 및 예보 (METAR 및 TAF 보고).

지도상에서 검색 가능한 기상관측소가 노란 점과 빨간 점으로 표시되어 있습니다.

기상관측소 명을 보려면 표시 위로 마우스를 이동하세요.

날씨 관측과 예보를 보려면 클릭하세요.

지도 변경 : 확대하려면 엑스 표시가 있는 녹색 버튼, 축소하려면 빼기 표시가 있는 녹색 버튼, 다음 페이지의 지도를 보려면 녹색 화살표를 클릭하세요.


METAR-TAF: